Time;durP1;ratioP1;P1;durP2;ratioP2;P2;SDS_P1;SDS_P2;PMS_P1;PMS_P2;Temp;Humidity;BMP_temperature;BMP_pressure;BME280_temperature;BME280_humidity;BME280_pressure;Samples;Min_cycle;Max_cycle;Signal;HPM_P1;HPM_P2
2023/05/11 00:01:25;;;;;;;;;6.33;6.00;;;;;16.31;56.87;101131.13;4985108;28;50443;-73
2023/05/11 00:03:51;;;;;;;;;12.00;10.00;;;;;16.31;56.93;101137.44;4974828;28;45382;-72
2023/05/11 00:06:16;;;;;;;;;10.67;8.67;;;;;16.26;56.98;101125.69;4985603;28;45652;-65
2023/05/11 00:08:42;;;;;;;;;6.67;6.33;;;;;16.08;57.42;101098.56;4981922;28;45094;-71
2023/05/11 00:11:08;;;;;;;;;5.00;4.00;;;;;16.19;57.26;101116.66;4986749;28;45005;-68
2023/05/11 00:13:33;;;;;;;;;11.00;6.33;;;;;16.22;57.49;101121.19;4985899;28;45396;-72
2023/05/11 00:15:58;;;;;;;;;5.00;4.00;;;;;16.23;57.87;101117.56;4986404;28;45383;-74
2023/05/11 00:18:24;;;;;;;;;3.00;3.00;;;;;16.25;57.13;101110.44;4986790;28;45391;-74
2023/05/11 00:20:49;;;;;;;;;4.00;3.67;;;;;16.30;57.39;101121.22;4984212;28;45549;-66
2023/05/11 00:23:15;;;;;;;;;4.00;3.00;;;;;16.27;57.26;101116.72;4987434;28;45510;-68
2023/05/11 00:25:40;;;;;;;;;5.33;5.33;;;;;16.26;57.35;101106.81;4984698;28;45979;-70
2023/05/11 00:28:06;;;;;;;;;5.67;4.33;;;;;16.29;56.98;101114.06;4987456;28;45301;-69
2023/05/11 00:30:32;;;;;;;;;6.67;4.00;;;;;16.27;57.14;101113.09;4986983;28;44968;-63
2023/05/11 00:32:57;;;;;;;;;5.00;4.00;;;;;16.27;56.86;101111.34;4983091;28;45323;-63
2023/05/11 00:35:22;;;;;;;;;5.67;5.67;;;;;16.16;57.01;101086.06;4984898;28;45682;-71
2023/05/11 00:37:48;;;;;;;;;4.33;3.00;;;;;16.23;56.95;101092.41;4984989;28;45279;-71
2023/05/11 00:40:13;;;;;;;;;6.67;5.33;;;;;16.24;56.80;101088.84;4987208;28;52139;-66
2023/05/11 00:42:39;;;;;;;;;11.67;8.67;;;;;16.32;56.81;101103.28;4986722;28;45379;-63
2023/05/11 00:45:05;;;;;;;;;6.00;5.67;;;;;16.22;57.00;101105.00;4984872;28;46689;-73
2023/05/11 00:47:30;;;;;;;;;5.00;4.67;;;;;16.16;57.34;101119.31;4988476;28;44896;-70
2023/05/11 00:49:56;;;;;;;;;5.67;3.33;;;;;16.14;56.90;101104.03;4988378;28;45005;-69
2023/05/11 00:52:22;;;;;;;;;7.67;4.00;;;;;16.06;57.51;101095.88;4986705;28;45480;-70
2023/05/11 00:54:47;;;;;;;;;3.00;3.00;;;;;16.00;56.92;101087.72;4985012;28;45313;-65
2023/05/11 00:57:13;;;;;;;;;4.67;1.67;;;;;16.09;57.41;101108.47;4988311;28;45254;-70
2023/05/11 00:59:39;;;;;;;;;2.67;2.67;;;;;16.10;57.18;101105.81;4987096;28;45337;-70
2023/05/11 01:02:05;;;;;;;;;2.33;2.33;;;;;16.06;56.99;101100.38;4986695;28;45207;-69
2023/05/11 01:04:31;;;;;;;;;3.33;3.00;;;;;16.03;57.18;101098.53;4985860;28;46559;-66
2023/05/11 01:07:07;;;;;;;;;1.00;1.00;;;;;15.97;57.31;101098.47;4975756;28;44975;-64
2023/05/11 01:09:59;;;;;;;;;1.00;1.00;;;;;15.98;57.55;101106.56;4979534;28;45284;-73
2023/05/11 01:12:55;;;;;;;;;2.00;2.00;;;;;15.98;57.69;101098.47;4987894;28;45265;-68
2023/05/11 01:15:28;;;;;;;;;2.33;1.33;;;;;15.90;58.25;101089.41;4983708;28;46059;-68
2023/05/11 01:18:08;;;;;;;;;2.67;1.33;;;;;15.68;58.55;101074.81;4980150;28;45159;-67
2023/05/11 01:20:33;;;;;;;;;8.00;2.33;;;;;15.75;58.90;101098.22;4986275;28;45330;-70
2023/05/11 01:23:18;;;;;;;;;4.67;2.00;;;;;15.76;59.00;101100.06;4986015;28;45058;-67
2023/05/11 01:26:02;;;;;;;;;5.67;1.67;;;;;15.80;58.68;101095.59;4986209;28;46174;-71
2023/05/11 01:29:20;;;;;;;;;4.67;3.67;;;;;15.72;58.83;101098.16;4984852;28;45342;-63
2023/05/11 01:31:47;;;;;;;;;5.00;5.00;;;;;15.70;59.07;101101.75;4946731;28;45357;-66
2023/05/11 01:34:20;;;;;;;;;8.67;5.00;;;;;15.62;58.92;101096.28;4980613;28;45188;-65
2023/05/11 01:36:53;;;;;;;;;8.67;4.67;;;;;15.66;59.64;101101.72;4976992;28;45631;-70
2023/05/11 01:39:24;;;;;;;;;4.00;2.67;;;;;15.69;59.35;101100.84;4985216;28;45835;-65
2023/05/11 01:41:52;;;;;;;;;2.67;2.67;;;;;15.66;59.51;101090.03;4985387;28;44931;-67
2023/05/11 01:44:20;;;;;;;;;2.67;2.67;;;;;15.60;58.69;101084.59;4985101;28;45608;-69
2023/05/11 01:46:47;;;;;;;;;2.33;2.00;;;;;15.71;59.30;101104.47;4984932;28;45607;-68
2023/05/11 01:49:14;;;;;;;;;2.00;1.67;;;;;15.71;58.84;101099.06;4985821;28;45186;-64
2023/05/11 01:51:42;;;;;;;;;3.33;1.67;;;;;15.62;59.31;101082.81;4978246;28;45100;-72
2023/05/11 01:54:10;;;;;;;;;1.00;1.00;;;;;15.75;58.79;101100.00;4990501;28;45201;-66
2023/05/11 01:56:37;;;;;;;;;1.33;1.33;;;;;15.75;59.40;101108.09;4986286;28;45317;-64
2023/05/11 01:59:03;;;;;;;;;2.00;2.00;;;;;15.70;58.62;101097.25;4988797;28;45046;-69
2023/05/11 02:01:31;;;;;;;;;2.33;1.67;;;;;15.62;58.97;101089.13;4976400;28;45216;-62
2023/05/11 02:03:59;;;;;;;;;2.33;2.33;;;;;15.62;58.89;101085.50;4982345;28;45275;-68
2023/05/11 02:06:27;;;;;;;;;1.67;1.67;;;;;15.75;58.92;101108.97;4982972;28;45802;-72
2023/05/11 02:08:55;;;;;;;;;1.33;1.33;;;;;15.70;59.43;101108.03;4987820;28;45379;-65
2023/05/11 02:11:23;;;;;;;;;1.67;1.67;;;;;15.72;59.71;101110.75;4988493;28;45359;-63
2023/05/11 02:13:51;;;;;;;;;2.67;1.00;;;;;15.70;59.68;101110.72;4990621;28;44948;-65
2023/05/11 02:16:19;;;;;;;;;2.00;1.33;;;;;15.51;60.04;101096.16;4978291;28;45961;-67
2023/05/11 02:18:46;;;;;;;;;2.67;1.67;;;;;15.59;59.93;101115.09;4984073;28;46086;-64
2023/05/11 02:21:14;;;;;;;;;3.00;1.67;;;;;15.62;59.90;101115.13;4988187;28;45146;-65
2023/05/11 02:23:42;;;;;;;;;2.67;2.67;;;;;15.61;59.73;101107.94;4989879;28;45297;-64
2023/05/11 02:26:09;;;;;;;;;1.33;1.00;;;;;15.56;60.36;101110.59;4988300;28;45297;-62
2023/05/11 02:28:35;;;;;;;;;0.67;0.67;;;;;15.55;60.01;101118.63;4988034;28;44976;-67
2023/05/11 02:31:07;;;;;;;;;3.67;1.00;;;;;15.38;60.53;101115.75;4986139;28;45946;-69
2023/05/11 02:33:45;;;;;;;;;2.67;1.33;;;;;15.23;60.94;101120.03;4990844;28;45011;-68
2023/05/11 02:36:16;;;;;;;;;3.00;2.33;;;;;15.14;62.30;101108.25;4990190;28;45787;-64
2023/05/11 02:38:44;;;;;;;;;3.33;1.67;;;;;15.22;61.68;101128.09;4975001;28;45345;-62
2023/05/11 02:41:14;;;;;;;;;4.00;2.00;;;;;15.20;62.21;101121.78;4987657;28;45367;-66
2023/05/11 02:43:44;;;;;;;;;2.67;2.67;;;;;15.19;62.33;101125.38;4980375;28;45167;-68
2023/05/11 02:46:13;;;;;;;;;2.00;2.00;;;;;15.22;62.38;101125.41;4988527;28;45863;-68
2023/05/11 02:48:44;;;;;;;;;1.33;1.33;;;;;15.23;62.72;101124.53;4987815;28;45180;-63
2023/05/11 02:51:11;;;;;;;;;2.67;0.67;;;;;15.18;62.65;101121.78;4987518;28;45492;-63
2023/05/11 02:53:38;;;;;;;;;4.33;2.33;;;;;15.15;63.27;101119.03;4985716;28;45422;-65
2023/05/11 02:56:05;;;;;;;;;4.33;3.00;;;;;15.05;62.84;101106.34;4988011;28;45566;-64
2023/05/11 02:58:30;;;;;;;;;2.33;1.00;;;;;14.97;63.54;101103.53;4988744;28;45272;-62
2023/05/11 03:00:56;;;;;;;;;3.00;2.00;;;;;15.00;63.55;101106.28;4987720;28;45134;-67
2023/05/11 03:03:22;;;;;;;;;5.00;3.33;;;;;14.88;63.54;101096.25;4972264;28;45437;-64
2023/05/11 03:05:47;;;;;;;;;5.33;2.00;;;;;14.90;63.82;101112.41;4978694;28;57329;-68
2023/05/11 03:08:13;;;;;;;;;3.33;3.33;;;;;14.75;63.86;101088.91;4989201;28;45419;-64
2023/05/11 03:10:39;;;;;;;;;2.67;2.67;;;;;14.89;63.83;101113.28;4987283;28;45322;-67
2023/05/11 03:13:06;;;;;;;;;3.67;2.00;;;;;14.86;64.02;101106.06;4986644;28;45131;-66
2023/05/11 03:15:32;;;;;;;;;2.67;2.67;;;;;14.69;64.08;101084.31;4986905;28;45921;-68
2023/05/11 03:17:59;;;;;;;;;2.33;2.33;;;;;14.85;63.89;101108.72;4982360;28;45265;-64
2023/05/11 03:20:26;;;;;;;;;4.00;3.33;;;;;14.77;63.87;101097.88;4990365;28;45057;-68
2023/05/11 03:22:54;;;;;;;;;3.67;3.00;;;;;14.72;64.21;101097.81;4980560;28;45031;-67
2023/05/11 03:25:21;;;;;;;;;1.33;1.33;;;;;14.76;64.48;101106.81;4971941;28;45535;-68
2023/05/11 03:27:49;;;;;;;;;2.00;2.00;;;;;14.74;64.57;101105.91;4988519;28;44928;-64
2023/05/11 03:30:16;;;;;;;;;2.00;2.00;;;;;14.74;64.26;101096.03;5009266;28;44995;-64
2023/05/11 03:32:42;;;;;;;;;1.00;0.67;;;;;14.76;63.92;101106.81;4987454;28;45464;-74
2023/05/11 03:35:08;;;;;;;;;6.00;3.00;;;;;14.71;64.12;101098.66;4983761;28;45322;-66
2023/05/11 03:37:36;;;;;;;;;1.00;1.00;;;;;14.71;64.22;101100.47;4987392;28;45375;-62
2023/05/11 03:40:02;;;;;;;;;2.00;2.00;;;;;14.74;64.00;101111.28;4988397;28;44973;-65
2023/05/11 03:42:29;;;;;;;;;5.00;3.33;;;;;14.77;64.11;101105.94;4979869;28;44983;-62
2023/05/11 03:44:58;;;;;;;;;3.00;3.00;;;;;14.78;63.53;101105.03;4980993;28;45594;-63
2023/05/11 03:47:27;;;;;;;;;6.00;3.00;;;;;14.77;63.63;101100.56;4987290;28;45097;-62
2023/05/11 03:49:53;;;;;;;;;2.00;2.00;;;;;14.64;63.52;101082.44;4987494;28;45382;-61
2023/05/11 03:52:19;;;;;;;;;3.33;3.00;;;;;14.75;63.93;101102.34;4988571;28;45474;-63
2023/05/11 03:54:45;;;;;;;;;3.33;3.33;;;;;14.75;63.62;101105.03;4986467;28;45253;-65
2023/05/11 03:57:10;;;;;;;;;4.00;3.00;;;;;14.71;63.79;101105.84;4977099;28;45313;-70
2023/05/11 03:59:38;;;;;;;;;2.67;2.00;;;;;14.36;63.79;101042.53;4981602;28;45174;-67
2023/05/11 04:02:04;;;;;;;;;3.67;3.67;;;;;14.64;63.71;101095.88;4980867;28;45015;-74
2023/05/11 04:04:30;;;;;;;;;3.33;2.67;;;;;14.61;63.79;101103.91;4986602;28;45446;-75
2023/05/11 04:06:56;;;;;;;;;3.67;3.67;;;;;14.56;63.88;101096.63;4979500;28;44942;-74
2023/05/11 04:09:21;;;;;;;;;6.33;3.00;;;;;14.60;64.16;101096.72;4987745;28;45091;-68
2023/05/11 04:11:46;;;;;;;;;2.67;2.00;;;;;14.57;64.01;101097.53;4985715;28;44898;-76
2023/05/11 04:14:12;;;;;;;;;3.00;3.00;;;;;14.55;63.99;101097.53;4986866;28;47360;-65
2023/05/11 04:16:37;;;;;;;;;3.00;3.00;;;;;14.56;63.86;101098.41;4987228;28;45055;-70
2023/05/11 04:19:03;;;;;;;;;2.00;2.00;;;;;14.28;64.25;101044.22;4984196;28;45374;-72
2023/05/11 04:21:28;;;;;;;;;3.67;2.33;;;;;14.63;64.06;101091.38;4978125;28;45559;-64
2023/05/11 04:23:53;;;;;;;;;1.00;1.00;;;;;14.61;63.84;101090.47;4986730;28;45547;-67
2023/05/11 04:26:19;;;;;;;;;3.33;3.00;;;;;14.67;63.41;101094.16;4986904;28;44945;-71
2023/05/11 04:28:45;;;;;;;;;4.00;3.00;;;;;14.62;63.47;101101.25;4986814;28;45149;-73
2023/05/11 04:31:10;;;;;;;;;3.67;3.67;;;;;14.56;63.37;101096.63;4987224;28;44977;-69
2023/05/11 04:33:35;;;;;;;;;3.00;3.00;;;;;14.51;63.44;101097.44;4977869;28;45936;-75
2023/05/11 04:36:01;;;;;;;;;7.00;4.67;;;;;14.41;63.87;101072.19;4986904;28;45462;-69
2023/05/11 04:38:26;;;;;;;;;5.33;3.00;;;;;14.54;64.03;101086.75;4987556;28;45277;-64
2023/05/11 04:40:51;;;;;;;;;3.00;2.00;;;;;14.51;63.09;101087.59;4987738;28;44995;-62
2023/05/11 04:43:17;;;;;;;;;5.00;4.00;;;;;14.52;63.32;101091.19;4986496;28;45841;-66
2023/05/11 04:45:49;;;;;;;;;3.67;3.67;;;;;14.56;63.07;101098.41;4979058;28;44934;-65
2023/05/11 04:48:15;;;;;;;;;8.00;5.33;;;;;14.60;63.26;101099.41;4986505;28;45161;-73
2023/05/11 04:50:41;;;;;;;;;9.00;7.67;;;;;14.68;62.96;101097.72;4986186;28;45212;-64
2023/05/11 04:53:07;;;;;;;;;8.00;5.00;;;;;14.73;62.80;101096.00;4980782;28;46029;-66
2023/05/11 04:55:32;;;;;;;;;10.33;5.67;;;;;14.81;62.48;101101.50;4977908;28;45152;-68
2023/05/11 04:57:57;;;;;;;;;7.67;5.00;;;;;14.87;62.39;101107.88;4982209;28;45398;-62
2023/05/11 05:00:23;;;;;;;;;9.67;6.00;;;;;14.89;62.47;101108.81;4978054;28;45037;-62
2023/05/11 05:02:49;;;;;;;;;9.00;7.67;;;;;14.88;62.34;101100.72;4985823;28;45315;-68
2023/05/11 05:05:15;;;;;;;;;4.67;4.67;;;;;14.89;61.97;101105.22;4992181;28;45878;-63
2023/05/11 05:07:40;;;;;;;;;5.67;5.00;;;;;14.91;61.94;101112.44;4985032;28;45091;-66
2023/05/11 05:10:07;;;;;;;;;6.67;6.67;;;;;14.93;62.14;101104.38;4979277;28;45162;-62
2023/05/11 05:12:35;;;;;;;;;6.00;4.00;;;;;14.99;61.93;101107.16;4983475;28;45971;-65
2023/05/11 05:15:00;;;;;;;;;8.67;6.33;;;;;15.04;61.35;101110.81;4982619;28;45321;-61
2023/05/11 05:17:26;;;;;;;;;16.00;11.67;;;;;15.09;61.08;101125.22;4985135;28;45154;-68
2023/05/11 05:19:51;;;;;;;;;8.00;6.33;;;;;15.15;60.79;101115.47;4982413;28;45164;-62
2023/05/11 05:22:17;;;;;;;;;10.33;9.00;;;;;15.20;61.31;101122.69;4982038;28;45858;-67
2023/05/11 05:24:42;;;;;;;;;9.67;5.33;;;;;15.19;60.80;101112.78;4986844;28;45103;-69
2023/05/11 05:27:07;;;;;;;;;15.33;12.33;;;;;15.24;60.68;101119.13;4987549;28;62618;-61
2023/05/11 05:29:33;;;;;;;;;9.33;7.33;;;;;15.21;60.30;101129.91;4982244;28;45064;-62
2023/05/11 05:31:58;;;;;;;;;10.33;8.67;;;;;15.17;60.78;101129.81;4977986;28;45713;-62
2023/05/11 05:34:24;;;;;;;;;9.33;5.00;;;;;15.16;60.60;101134.28;4982940;28;45274;-70
2023/05/11 05:36:49;;;;;;;;;5.33;5.33;;;;;15.11;60.75;101139.63;4985390;28;45236;-63
2023/05/11 05:39:15;;;;;;;;;5.00;4.00;;;;;15.10;60.84;101135.13;4978011;28;45139;-68
2023/05/11 05:41:41;;;;;;;;;6.00;6.00;;;;;15.13;61.34;101136.97;4986954;28;45641;-62
2023/05/11 05:44:06;;;;;;;;;6.00;5.00;;;;;15.13;60.64;101134.28;4982413;28;45097;-64
2023/05/11 05:46:32;;;;;;;;;7.00;5.33;;;;;15.12;60.80;101140.53;4989384;28;45079;-67
2023/05/11 05:48:57;;;;;;;;;3.67;3.00;;;;;15.07;60.81;101137.75;5001414;28;45360;-68
2023/05/11 05:51:22;;;;;;;;;8.33;6.00;;;;;15.06;61.37;101135.03;4983073;28;46895;-65
2023/05/11 05:53:48;;;;;;;;;11.33;11.33;;;;;15.08;61.11;101127.94;4981658;28;45129;-72
2023/05/11 05:56:13;;;;;;;;;17.33;14.33;;;;;15.14;60.84;101129.78;4979704;28;51151;-66
2023/05/11 05:58:39;;;;;;;;;11.67;8.67;;;;;15.15;60.69;101135.19;4983709;28;45255;-66
2023/05/11 06:01:04;;;;;;;;;17.00;15.67;;;;;15.18;60.87;101147.75;4980442;28;46015;-72
2023/05/11 06:03:30;;;;;;;;;11.67;5.00;;;;;15.18;61.17;101145.06;4981532;28;45123;-75
2023/05/11 06:05:55;;;;;;;;;10.00;10.00;;;;;15.26;61.18;101149.69;4976553;28;45546;-67
2023/05/11 06:08:20;;;;;;;;;7.33;6.00;;;;;15.19;60.57;101128.94;4978241;28;45315;-65
2023/05/11 06:10:46;;;;;;;;;8.67;8.33;;;;;15.26;61.09;101152.41;4975856;28;46252;-63
2023/05/11 06:13:11;;;;;;;;;9.67;7.67;;;;;14.96;61.09;101099.03;4969750;28;45445;-64
2023/05/11 06:15:37;;;;;;;;;8.00;6.33;;;;;15.32;60.84;101159.63;4973528;28;45257;-71
2023/05/11 06:18:02;;;;;;;;;5.33;5.33;;;;;15.34;60.17;101162.34;4970276;28;45461;-69
2023/05/11 06:20:27;;;;;;;;;8.00;7.33;;;;;15.30;60.65;101156.03;4973492;28;45444;-63
2023/05/11 06:22:53;;;;;;;;;8.67;7.33;;;;;15.25;60.70;101158.66;4970795;28;45602;-66
2023/05/11 06:25:19;;;;;;;;;8.33;6.67;;;;;15.28;61.03;101157.81;4973677;28;45428;-65
2023/05/11 06:27:44;;;;;;;;;8.00;8.00;;;;;15.21;61.02;101135.28;4964753;28;45322;-65
2023/05/11 06:30:10;;;;;;;;;10.67;7.67;;;;;15.43;60.67;101157.09;4972087;28;46567;-67
2023/05/11 06:32:35;;;;;;;;;9.33;6.67;;;;;15.52;60.31;101159.88;4970454;28;45495;-64
2023/05/11 06:35:01;;;;;;;;;9.00;6.67;;;;;15.56;60.00;101169.84;4972418;28;45623;-65
2023/05/11 06:37:28;;;;;;;;;9.33;7.00;;;;;15.61;59.81;101167.22;4973228;28;45362;-63
2023/05/11 06:39:54;;;;;;;;;13.33;11.00;;;;;15.70;59.93;101167.28;4973328;28;45608;-68
2023/05/11 06:42:22;;;;;;;;;10.33;7.33;;;;;15.71;59.75;101176.31;4970373;28;45518;-62
2023/05/11 06:44:48;;;;;;;;;10.67;8.00;;;;;15.54;59.95;101159.91;4967488;28;45508;-65
2023/05/11 06:47:13;;;;;;;;;21.33;16.00;;;;;15.48;60.32;101152.66;4970709;28;45424;-68
2023/05/11 06:49:40;;;;;;;;;15.33;7.67;;;;;15.57;60.57;101176.13;4969721;28;45660;-69
2023/05/11 06:52:06;;;;;;;;;7.67;7.00;;;;;15.63;60.38;101171.69;4975179;28;45475;-75
2023/05/11 06:54:31;;;;;;;;;6.67;6.67;;;;;15.59;59.93;101161.78;4975328;28;45472;-73
2023/05/11 06:56:56;;;;;;;;;7.67;6.67;;;;;15.54;59.85;101160.84;4966998;28;45279;-67
2023/05/11 06:59:22;;;;;;;;;10.33;6.67;;;;;15.50;60.36;101160.78;4956187;28;46267;-68
2023/05/11 07:01:47;;;;;;;;;12.00;7.67;;;;;15.50;60.42;101169.75;4973311;28;45493;-64
2023/05/11 07:04:13;;;;;;;;;18.33;13.67;;;;;15.47;60.95;101169.69;4972992;28;45373;-66
2023/05/11 07:06:38;;;;;;;;;14.00;12.67;;;;;15.39;60.85;101172.31;4964651;28;45576;-70
2023/05/11 07:09:03;;;;;;;;;10.67;7.33;;;;;15.35;60.66;101170.44;4971690;28;45506;-70
2023/05/11 07:11:29;;;;;;;;;14.67;13.00;;;;;15.32;60.83;101174.91;4963747;28;45477;-63
2023/05/11 07:13:55;;;;;;;;;19.33;13.00;;;;;15.29;60.95;101160.50;4972432;28;45531;-71
2023/05/11 07:16:20;;;;;;;;;13.33;10.33;;;;;15.45;60.73;101175.06;4968686;28;45609;-62
2023/05/11 07:18:45;;;;;;;;;12.00;9.00;;;;;15.43;60.69;101160.69;4968056;28;46248;-64
2023/05/11 07:21:11;;;;;;;;;12.00;9.67;;;;;15.47;60.59;101167.00;4972560;28;45443;-65
2023/05/11 07:23:36;;;;;;;;;8.67;7.67;;;;;15.52;60.89;101162.59;4972584;28;45963;-63
2023/05/11 07:26:07;;;;;;;;;15.33;10.67;;;;;15.59;60.42;101167.19;4972884;28;45688;-63
2023/05/11 07:28:33;;;;;;;;;16.00;7.33;;;;;15.54;60.39;101143.75;4985524;28;45394;-63
2023/05/11 07:30:58;;;;;;;;;12.33;8.33;;;;;15.53;60.52;101160.81;4964177;28;45309;-62
2023/05/11 07:33:23;;;;;;;;;14.67;8.67;;;;;15.55;60.86;101170.69;4972254;28;45444;-63
2023/05/11 07:35:50;;;;;;;;;13.67;9.33;;;;;15.61;60.32;101175.28;4972760;28;45660;-64
2023/05/11 07:38:17;;;;;;;;;12.33;7.33;;;;;15.64;60.28;101161.81;4971746;28;45496;-63
2023/05/11 07:40:42;;;;;;;;;14.67;10.33;;;;;15.75;59.71;101170.06;4978830;27;45552;-62
2023/05/11 07:43:07;;;;;;;;;10.67;9.33;;;;;15.63;60.01;101160.94;4972074;28;45528;-62
2023/05/11 07:45:33;;;;;;;;;12.67;7.67;;;;;15.60;60.13;101174.34;4969677;28;45663;-63
2023/05/11 07:47:58;;;;;;;;;9.00;6.33;;;;;15.54;60.44;101177.00;4979105;28;45389;-63
2023/05/11 07:50:24;;;;;;;;;8.67;7.00;;;;;15.49;60.05;101157.16;4990697;27;46079;-64
2023/05/11 07:52:49;;;;;;;;;8.00;7.67;;;;;15.64;60.27;101167.22;4969034;28;45823;-63
2023/05/11 07:55:15;;;;;;;;;9.33;8.00;;;;;15.62;59.94;101169.00;4966401;28;45476;-63
2023/05/11 07:57:40;;;;;;;;;10.67;8.33;;;;;15.59;59.85;101169.88;4971784;28;46038;-62
2023/05/11 08:00:06;;;;;;;;;10.33;10.33;;;;;15.61;60.15;101165.41;4972712;28;45737;-63
2023/05/11 08:02:32;;;;;;;;;9.00;6.00;;;;;15.72;59.93;101168.22;4972005;28;45361;-66
2023/05/11 08:04:57;;;;;;;;;13.00;12.67;;;;;15.73;60.21;101158.34;4971983;28;45279;-65
2023/05/11 08:07:23;;;;;;;;;9.67;8.00;;;;;15.78;59.56;101162.94;4972047;28;46734;-63
2023/05/11 08:09:48;;;;;;;;;6.33;6.33;;;;;15.71;59.20;101158.34;4971803;28;45586;-67
2023/05/11 08:12:13;;;;;;;;;12.67;10.00;;;;;15.72;59.49;101145.75;4971162;28;45532;-65
2023/05/11 08:14:39;;;;;;;;;8.33;8.33;;;;;15.94;59.29;101161.34;4958618;28;45291;-63
2023/05/11 08:17:05;;;;;;;;;8.33;7.00;;;;;16.03;59.00;101171.28;4968457;28;45512;-61
2023/05/11 08:19:30;;;;;;;;;14.00;11.00;;;;;15.99;58.88;101147.91;4971480;28;45513;-68
2023/05/11 08:21:55;;;;;;;;;10.00;8.00;;;;;16.17;58.32;101161.56;4971443;28;45457;-66
2023/05/11 08:24:21;;;;;;;;;9.67;9.67;;;;;16.18;58.31;101159.75;4967202;28;45481;-71
2023/05/11 08:26:47;;;;;;;;;12.33;10.00;;;;;16.33;57.29;101168.03;4967942;28;47517;-72
2023/05/11 08:29:13;;;;;;;;;18.00;15.00;;;;;16.49;57.31;101173.56;4971776;28;45468;-71
2023/05/11 08:31:39;;;;;;;;;11.00;9.00;;;;;16.53;56.88;101151.09;4973574;28;45380;-73
2023/05/11 08:34:07;;;;;;;;;9.00;9.00;;;;;16.72;56.43;101171.94;4988213;27;45476;-63
2023/05/11 08:36:32;;;;;;;;;8.67;8.67;;;;;16.83;56.35;101165.72;4973043;28;46103;-66
2023/05/11 08:38:58;;;;;;;;;7.00;7.00;;;;;16.90;55.58;101160.41;4972653;28;44740;-65
2023/05/11 08:41:23;;;;;;;;;9.67;9.00;;;;;16.99;55.64;101162.25;4972100;28;45459;-68
2023/05/11 08:43:48;;;;;;;;;10.67;9.00;;;;;16.99;55.82;101156.88;4972425;28;45445;-66
2023/05/11 08:46:20;;;;;;;;;8.33;8.33;;;;;17.05;55.20;101156.03;4971552;28;46501;-62
2023/05/11 08:48:46;;;;;;;;;7.33;5.00;;;;;17.07;55.49;101160.50;4961683;28;45535;-62
2023/05/11 08:51:11;;;;;;;;;11.00;9.00;;;;;17.18;55.19;101167.81;4966861;28;45522;-62
2023/05/11 08:53:37;;;;;;;;;10.67;7.67;;;;;17.22;55.12;101157.00;4962770;28;45533;-64
2023/05/11 08:56:06;;;;;;;;;12.33;10.33;;;;;17.38;54.71;101155.28;4966338;28;46778;-63
2023/05/11 08:58:33;;;;;;;;;8.33;7.33;;;;;17.42;53.94;101143.63;4969976;28;45322;-64
2023/05/11 09:00:58;;;;;;;;;18.67;18.67;;;;;17.59;53.95;101151.78;4970890;28;45472;-65
2023/05/11 09:03:28;;;;;;;;;7.67;7.67;;;;;17.74;53.80;101155.47;4962411;28;45585;-64
2023/05/11 09:05:54;;;;;;;;;5.00;3.33;;;;;17.85;52.63;101153.66;4967070;28;46199;-62
2023/05/11 09:08:22;;;;;;;;;7.00;5.67;;;;;17.89;52.86;101157.34;4967083;28;45685;-70
2023/05/11 09:10:48;;;;;;;;;4.00;4.00;;;;;17.93;52.38;101159.13;4957265;28;45343;-69
2023/05/11 09:13:14;;;;;;;;;7.33;5.33;;;;;17.89;52.53;101160.94;4961992;28;45438;-68
2023/05/11 09:15:39;;;;;;;;;6.33;5.33;;;;;17.88;52.81;101153.72;4970934;28;46313;-65
2023/05/11 09:18:05;;;;;;;;;10.67;7.67;;;;;17.89;52.46;101158.22;4970152;28;45488;-66
2023/05/11 09:20:32;;;;;;;;;5.67;5.00;;;;;17.90;52.16;101156.41;4971943;28;45513;-64
2023/05/11 09:22:58;;;;;;;;;8.33;4.67;;;;;17.82;52.35;101141.06;4969089;28;45231;-66
2023/05/11 09:25:25;;;;;;;;;9.00;6.67;;;;;17.91;51.83;101151.03;4971195;28;46396;-63
2023/05/11 09:27:51;;;;;;;;;4.67;4.33;;;;;18.01;51.56;101158.25;4970866;28;45602;-63
2023/05/11 09:30:20;;;;;;;;;10.67;8.67;;;;;18.10;51.35;101151.97;4969662;28;45417;-66
2023/05/11 09:32:56;;;;;;;;;8.67;6.33;;;;;18.17;50.68;101150.19;4972119;28;45621;-73
2023/05/11 09:35:29;;;;;;;;;6.00;6.00;;;;;18.20;50.59;101148.38;4970213;28;45578;-64
2023/05/11 09:38:15;;;;;;;;;12.00;7.67;;;;;18.32;50.63;101150.19;4971307;28;45565;-63
2023/05/11 09:40:50;;;;;;;;;8.67;6.33;;;;;18.39;50.29;101124.03;4964032;28;45746;-64
2023/05/11 09:43:35;;;;;;;;;7.33;5.00;;;;;18.51;50.18;101148.41;4965101;28;45482;-63
2023/05/11 09:46:05;;;;;;;;;16.00;10.67;;;;;18.39;49.64;101143.88;4958727;27;45649;-64
2023/05/11 09:48:32;;;;;;;;;8.00;8.00;;;;;18.32;49.90;101149.31;4959039;28;45342;-68
2023/05/11 09:51:03;;;;;;;;;5.33;5.00;;;;;18.34;50.00;101145.69;4971036;28;45437;-62
2023/05/11 09:53:35;;;;;;;;;9.00;8.33;;;;;18.34;49.79;101144.78;4958709;28;45213;-64
2023/05/11 09:56:00;;;;;;;;;4.67;4.67;;;;;18.30;49.72;101138.47;4957991;28;45517;-63
2023/05/11 09:58:49;;;;;;;;;8.67;5.67;;;;;18.39;49.09;101142.97;4970331;28;47214;-61
2023/05/11 10:01:16;;;;;;;;;11.67;11.67;;;;;18.37;49.26;101137.56;4970433;28;45480;-63
2023/05/11 10:03:52;;;;;;;;;9.50;7.00;;;;;18.41;49.15;101128.56;4971624;28;45371;-61
2023/05/11 10:06:18;;;;;;;;;8.33;7.67;;;;;18.59;49.09;101132.16;4966407;28;45572;-63
2023/05/11 10:08:45;;;;;;;;;5.00;5.00;;;;;18.62;48.77;101125.84;4963432;28;45459;-63
2023/05/11 10:11:11;;;;;;;;;4.00;4.00;;;;;18.69;49.01;101127.63;4966652;28;45655;-64
2023/05/11 10:13:38;;;;;;;;;9.33;7.33;;;;;18.43;48.93;101074.47;4966229;28;45413;-63
2023/05/11 10:16:05;;;;;;;;;6.00;6.00;;;;;18.71;48.95;101129.44;4974210;28;46417;-65
2023/05/11 10:18:31;;;;;;;;;10.00;7.67;;;;;18.71;48.43;101128.53;4974510;27;45277;-64
2023/05/11 10:20:57;;;;;;;;;6.67;6.00;;;;;18.66;48.21;101116.81;4973668;28;45411;-65
2023/05/11 10:23:24;;;;;;;;;8.67;7.00;;;;;18.77;48.34;101124.00;4966785;28;45388;-65
2023/05/11 10:25:51;;;;;;;;;8.67;5.00;;;;;18.83;47.66;101125.84;4974601;28;46503;-65
2023/05/11 10:28:17;;;;;;;;;5.33;5.33;;;;;18.89;47.86;101122.22;4973598;28;45806;-63
2023/05/11 10:30:44;;;;;;;;;8.00;5.00;;;;;18.89;47.43;101117.72;4966431;28;45503;-66
2023/05/11 10:33:10;;;;;;;;;5.67;5.67;;;;;18.94;47.92;101118.63;4972727;28;45405;-63
2023/05/11 10:35:37;;;;;;;;;6.00;4.33;;;;;18.98;47.46;101107.78;4974060;28;46013;-62
2023/05/11 10:38:02;;;;;;;;;4.00;4.00;;;;;18.96;46.90;101121.31;4969693;28;45303;-63
2023/05/11 10:40:29;;;;;;;;;5.67;4.67;;;;;18.56;46.81;101068.13;4973394;28;45941;-64
2023/05/11 10:43:06;;;;;;;;;6.00;6.00;;;;;18.85;47.28;101115.91;4973627;28;45693;-64
2023/05/11 10:46:07;;;;;;;;;5.00;4.67;;;;;18.94;46.60;101109.56;4965156;28;46160;-67
2023/05/11 10:48:51;;;;;;;;;31.00;24.00;;;;;19.07;46.80;101121.28;4967766;28;45384;-67
2023/05/11 10:51:51;;;;;;;;;6.67;4.67;;;;;19.02;46.23;101105.03;4973589;28;45318;-63
2023/05/11 10:54:35;;;;;;;;;14.00;11.33;;;;;19.10;46.63;101114.03;4961254;28;45463;-74
2023/05/11 10:57:12;;;;;;;;;11.67;10.00;;;;;19.15;45.79;101108.63;4987655;28;46738;-67
2023/05/11 10:59:54;;;;;;;;;30.00;24.33;;;;;19.23;45.79;101114.91;4968150;28;45385;-64
2023/05/11 11:02:21;;;;;;;;;12.00;8.67;;;;;19.07;45.75;101084.28;4967245;28;45474;-62
2023/05/11 11:04:49;;;;;;;;;6.33;5.00;;;;;19.13;45.82;101083.34;4973650;28;45333;-63
2023/05/11 11:07:18;;;;;;;;;7.00;5.00;;;;;19.26;45.09;101101.38;4973036;28;45444;-63
2023/05/11 11:09:50;;;;;;;;;9.67;4.00;;;;;19.36;45.17;101106.75;4972700;28;45459;-64
2023/05/11 11:12:15;;;;;;;;;7.00;7.00;;;;;19.36;45.28;101098.63;4960334;28;45433;-62
2023/05/11 11:15:05;;;;;;;;;4.33;4.33;;;;;19.32;45.70;101101.34;4974212;27;45373;-62
2023/05/11 11:17:33;;;;;;;;;11.67;10.67;;;;;19.23;45.63;101093.25;4980796;28;46177;-63
2023/05/11 11:20:03;;;;;;;;;8.33;6.00;;;;;19.04;46.36;101107.75;4972868;28;45320;-65
2023/05/11 11:22:35;;;;;;;;;11.00;7.67;;;;;18.86;46.91;101100.56;4971153;27;45539;-65
2023/05/11 11:25:04;;;;;;;;;12.33;9.00;;;;;18.77;47.32;101101.47;4959865;28;45513;-64